This is the latest recevied weather packets stored in our database for station/object YN1JLX-13. If no packets are shown the sender has not sent any weather packets the latest 10 day(s).
| Time | Temp. | Humidity | Pressure | Rain* | Wind** | Luminosity | Snow |
|---|---|---|---|---|---|---|---|
| 1778294869 | 23.89° C | 55% | 1009 hPa | 0 mm | - | - | - |
| 1778294269 | 22.22° C | 53% | 1009 hPa | 0 mm | - | - | - |
| 1778293669 | 23.33° C | 53% | 1008 hPa | 0 mm | - | - | - |
| 1778293068 | 22.78° C | 51% | 1008 hPa | 0 mm | - | - | - |
| 1778292468 | 23.89° C | 51% | 1008 hPa | 0 mm | - | - | - |
| 1778291868 | 25° C | 51% | 1008 hPa | 0 mm | - | - | - |
| 1778291267 | 25° C | 51% | 1008 hPa | 0 mm | - | - | - |
| 1778290667 | 23.33° C | 46% | 1008 hPa | 0 mm | - | - | - |
| 1778290067 | 24.44° C | 45% | 1007 hPa | 0 mm | - | - | - |
| 1778289466 | 25.56° C | 45% | 1007 hPa | 0 mm | - | - | - |
| 1778288866 | 24.44° C | 41% | 1007 hPa | 0 mm | - | - | - |
| 1778288266 | 25.56° C | 41% | 1007 hPa | 0 mm | - | - | - |
| 1778287666 | 25.56° C | 41% | 1007 hPa | 0 mm | - | - | - |
| 1778287065 | 26.11° C | 41% | 1007 hPa | 0 mm | - | - | - |
| 1778286465 | 26.67° C | 41% | 1006 hPa | 0 mm | - | - | - |
| 1778285865 | 26.67° C | 41% | 1006 hPa | 0 mm | - | - | - |
| 1778285264 | 25.56° C | 40% | 1006 hPa | 0 mm | - | - | - |
| 1778284664 | 26.67° C | 40% | 1006 hPa | 0 mm | - | - | - |
| 1778284064 | 27.22° C | 40% | 1006 hPa | 0 mm | - | - | - |
| 1778283463 | 26.11° C | 37% | 1006 hPa | 0 mm | - | - | - |
| 1778282863 | 27.22° C | 36% | 1006 hPa | 0 mm | - | - | - |
| 1778282263 | 27.22° C | 36% | 1006 hPa | 0 mm | - | - | - |
| 1778281663 | 28.33° C | 36% | 1006 hPa | 0 mm | - | - | - |
| 1778280462 | 26.67° C | 36% | 1006 hPa | 0 mm | - | - | - |
| 1778279862 | 27.22° C | 36% | 1006 hPa | 0 mm | - | - | - |
* Rain latest hour (hover to see other rain measurements)
** Current wind speed in m/s (hover to see current wind gust speed)